Artesia, New Mexico
Current Conditions -  °F | °C
As of 1:51 AM on Monday 24 Nov 2014 (Local Time) from KROW Reporting Station
Clear Clear  
Wind Chill: 32°   Ceiling: Unl
Heat Index: 39°   Visibility: 10mi
Dew Point: 14°   Wind: 10mph
Humidity: 36%   Direction: 320°NW
Pressure: 30.03"   Gusts: NA
Location:  32.84°N, 104.39°W
Report Text: KROW 240851Z AUTO 32009KT 10SM CLR 04/M10 A3003 RMK AO2 SLP141 T00391100 53006
Loading
Personal Weather Stations






























Interactive Weather Map New forecast layout! Learn more

10-Day Weather Forecast

Advertisements
Track Severe Weather on mobile